sensor_id;sensor_type;location;lat;lon;timestamp;temperature;humidity
21508;DHT22;10915;54.352;9.074;2022-07-18T00:00:05;15.70;99.90
21508;DHT22;10915;54.352;9.074;2022-07-18T00:02:32;15.80;99.90
21508;DHT22;10915;54.352;9.074;2022-07-18T00:04:57;15.80;99.90
21508;DHT22;10915;54.352;9.074;2022-07-18T00:07:23;15.80;99.90
21508;DHT22;10915;54.352;9.074;2022-07-18T00:09:49;15.80;99.90
21508;DHT22;10915;54.352;9.074;2022-07-18T00:12:15;15.80;99.90
21508;DHT22;10915;54.352;9.074;2022-07-18T00:14:41;15.80;99.90
21508;DHT22;10915;54.352;9.074;2022-07-18T00:17:07;15.80;99.90
21508;DHT22;10915;54.352;9.074;2022-07-18T00:19:34;15.80;99.90
21508;DHT22;10915;54.352;9.074;2022-07-18T00:21:59;15.80;99.90
21508;DHT22;10915;54.352;9.074;2022-07-18T00:24:26;15.80;99.90
21508;DHT22;10915;54.352;9.074;2022-07-18T00:26:52;15.70;99.90
21508;DHT22;10915;54.352;9.074;2022-07-18T00:29:18;15.80;99.90
21508;DHT22;10915;54.352;9.074;2022-07-18T00:31:43;15.70;99.90
21508;DHT22;10915;54.352;9.074;2022-07-18T00:34:09;15.80;99.90
21508;DHT22;10915;54.352;9.074;2022-07-18T00:36:35;15.80;99.90
21508;DHT22;10915;54.352;9.074;2022-07-18T00:39:00;15.80;99.90
21508;DHT22;10915;54.352;9.074;2022-07-18T00:41:26;15.80;99.90
21508;DHT22;10915;54.352;9.074;2022-07-18T00:43:52;15.80;99.90
21508;DHT22;10915;54.352;9.074;2022-07-18T00:46:25;15.80;99.90
21508;DHT22;10915;54.352;9.074;2022-07-18T00:48:51;15.90;99.90
21508;DHT22;10915;54.352;9.074;2022-07-18T00:51:18;15.80;99.90
21508;DHT22;10915;54.352;9.074;2022-07-18T00:53:45;15.90;99.90
21508;DHT22;10915;54.352;9.074;2022-07-18T00:56:12;15.90;99.90
21508;DHT22;10915;54.352;9.074;2022-07-18T00:58:39;15.90;99.90
21508;DHT22;10915;54.352;9.074;2022-07-18T01:01:05;15.90;99.90
21508;DHT22;10915;54.352;9.074;2022-07-18T01:03:49;15.90;99.90
21508;DHT22;10915;54.352;9.074;2022-07-18T01:06:14;15.90;99.90
21508;DHT22;10915;54.352;9.074;2022-07-18T01:08:42;15.90;99.90
21508;DHT22;10915;54.352;9.074;2022-07-18T01:11:09;16.00;99.90
21508;DHT22;10915;54.352;9.074;2022-07-18T01:13:34;15.90;99.90
21508;DHT22;10915;54.352;9.074;2022-07-18T01:16:01;15.90;99.90
21508;DHT22;10915;54.352;9.074;2022-07-18T01:18:26;16.00;99.90
21508;DHT22;10915;54.352;9.074;2022-07-18T01:20:52;16.00;99.90
21508;DHT22;10915;54.352;9.074;2022-07-18T01:23:18;16.00;99.90
21508;DHT22;10915;54.352;9.074;2022-07-18T01:25:44;16.00;99.90
21508;DHT22;10915;54.352;9.074;2022-07-18T01:28:09;16.00;99.90
21508;DHT22;10915;54.352;9.074;2022-07-18T01:30:35;16.00;99.90
21508;DHT22;10915;54.352;9.074;2022-07-18T01:33:02;16.00;99.90
21508;DHT22;10915;54.352;9.074;2022-07-18T01:35:29;16.00;99.90
21508;DHT22;10915;54.352;9.074;2022-07-18T01:37:56;16.00;99.90
21508;DHT22;10915;54.352;9.074;2022-07-18T01:40:23;16.00;99.90
21508;DHT22;10915;54.352;9.074;2022-07-18T01:42:49;16.00;99.90
21508;DHT22;10915;54.352;9.074;2022-07-18T01:45:16;16.00;99.90
21508;DHT22;10915;54.352;9.074;2022-07-18T01:47:42;16.00;99.90
21508;DHT22;10915;54.352;9.074;2022-07-18T01:50:10;16.00;99.90
21508;DHT22;10915;54.352;9.074;2022-07-18T01:52:36;16.00;99.90
21508;DHT22;10915;54.352;9.074;2022-07-18T01:55:04;16.00;99.90
21508;DHT22;10915;54.352;9.074;2022-07-18T01:57:30;16.00;99.90
21508;DHT22;10915;54.352;9.074;2022-07-18T01:59:56;16.10;99.90
21508;DHT22;10915;54.352;9.074;2022-07-18T02:02:21;16.10;99.90
21508;DHT22;10915;54.352;9.074;2022-07-18T02:04:47;16.10;99.90
21508;DHT22;10915;54.352;9.074;2022-07-18T02:07:46;16.10;99.90
21508;DHT22;10915;54.352;9.074;2022-07-18T02:10:14;16.10;99.90
21508;DHT22;10915;54.352;9.074;2022-07-18T02:12:41;16.10;99.90
21508;DHT22;10915;54.352;9.074;2022-07-18T02:15:08;16.10;99.90
21508;DHT22;10915;54.352;9.074;2022-07-18T02:17:34;16.10;99.90
21508;DHT22;10915;54.352;9.074;2022-07-18T02:20:00;16.10;99.90
21508;DHT22;10915;54.352;9.074;2022-07-18T02:22:26;16.10;99.90
21508;DHT22;10915;54.352;9.074;2022-07-18T02:24:52;16.10;99.90
21508;DHT22;10915;54.352;9.074;2022-07-18T02:27:19;16.10;99.90
21508;DHT22;10915;54.352;9.074;2022-07-18T02:29:45;16.10;99.90
21508;DHT22;10915;54.352;9.074;2022-07-18T02:32:11;16.10;99.90
21508;DHT22;10915;54.352;9.074;2022-07-18T02:34:37;16.10;99.90
21508;DHT22;10915;54.352;9.074;2022-07-18T02:37:03;16.10;99.90
21508;DHT22;10915;54.352;9.074;2022-07-18T02:39:28;16.10;99.90
21508;DHT22;10915;54.352;9.074;2022-07-18T02:41:54;16.10;99.90
21508;DHT22;10915;54.352;9.074;2022-07-18T02:44:20;16.10;99.90
21508;DHT22;10915;54.352;9.074;2022-07-18T02:46:46;16.00;99.90
21508;DHT22;10915;54.352;9.074;2022-07-18T02:49:12;16.00;99.90
21508;DHT22;10915;54.352;9.074;2022-07-18T02:51:53;16.00;99.90
21508;DHT22;10915;54.352;9.074;2022-07-18T02:54:20;16.00;99.90
21508;DHT22;10915;54.352;9.074;2022-07-18T02:56:45;16.00;99.90
21508;DHT22;10915;54.352;9.074;2022-07-18T02:59:11;16.00;99.90
21508;DHT22;10915;54.352;9.074;2022-07-18T03:01:36;16.00;99.90
21508;DHT22;10915;54.352;9.074;2022-07-18T03:04:02;16.00;99.90
21508;DHT22;10915;54.352;9.074;2022-07-18T03:06:28;15.90;99.90
21508;DHT22;10915;54.352;9.074;2022-07-18T03:08:54;15.90;99.90
21508;DHT22;10915;54.352;9.074;2022-07-18T03:11:19;15.80;99.90
21508;DHT22;10915;54.352;9.074;2022-07-18T03:13:45;15.90;99.90
21508;DHT22;10915;54.352;9.074;2022-07-18T03:16:11;15.90;99.90
21508;DHT22;10915;54.352;9.074;2022-07-18T03:18:37;15.90;99.90
21508;DHT22;10915;54.352;9.074;2022-07-18T03:21:03;15.90;99.90
21508;DHT22;10915;54.352;9.074;2022-07-18T03:23:29;15.90;99.90
21508;DHT22;10915;54.352;9.074;2022-07-18T03:25:54;15.90;99.90
21508;DHT22;10915;54.352;9.074;2022-07-18T03:28:20;15.90;99.90
21508;DHT22;10915;54.352;9.074;2022-07-18T03:30:45;15.90;99.90
21508;DHT22;10915;54.352;9.074;2022-07-18T03:33:11;15.90;99.90
21508;DHT22;10915;54.352;9.074;2022-07-18T03:35:37;15.90;99.90
21508;DHT22;10915;54.352;9.074;2022-07-18T03:38:02;15.90;99.90
21508;DHT22;10915;54.352;9.074;2022-07-18T03:40:28;15.90;99.90
21508;DHT22;10915;54.352;9.074;2022-07-18T03:42:54;15.90;99.90
21508;DHT22;10915;54.352;9.074;2022-07-18T03:45:19;15.90;99.90
21508;DHT22;10915;54.352;9.074;2022-07-18T03:47:45;15.90;99.90
21508;DHT22;10915;54.352;9.074;2022-07-18T03:50:11;15.90;99.90
21508;DHT22;10915;54.352;9.074;2022-07-18T03:52:36;15.90;99.90
21508;DHT22;10915;54.352;9.074;2022-07-18T03:55:02;15.90;99.90
21508;DHT22;10915;54.352;9.074;2022-07-18T03:57:28;15.90;99.90
21508;DHT22;10915;54.352;9.074;2022-07-18T03:59:54;15.90;99.90
21508;DHT22;10915;54.352;9.074;2022-07-18T04:02:20;16.00;99.90
21508;DHT22;10915;54.352;9.074;2022-07-18T04:04:45;16.00;99.90
21508;DHT22;10915;54.352;9.074;2022-07-18T04:07:11;16.00;99.90
21508;DHT22;10915;54.352;9.074;2022-07-18T04:09:36;16.10;99.90
21508;DHT22;10915;54.352;9.074;2022-07-18T04:12:02;16.10;99.90
21508;DHT22;10915;54.352;9.074;2022-07-18T04:14:28;16.10;99.90
21508;DHT22;10915;54.352;9.074;2022-07-18T04:16:54;16.10;99.90
21508;DHT22;10915;54.352;9.074;2022-07-18T04:19:19;16.20;99.90
21508;DHT22;10915;54.352;9.074;2022-07-18T04:21:45;16.20;99.90
21508;DHT22;10915;54.352;9.074;2022-07-18T04:24:11;16.20;99.90
21508;DHT22;10915;54.352;9.074;2022-07-18T04:26:37;16.30;99.90
21508;DHT22;10915;54.352;9.074;2022-07-18T04:29:03;16.30;99.90
21508;DHT22;10915;54.352;9.074;2022-07-18T04:31:29;16.40;99.90
21508;DHT22;10915;54.352;9.074;2022-07-18T04:33:55;16.40;99.90
21508;DHT22;10915;54.352;9.074;2022-07-18T04:36:20;16.40;99.90
21508;DHT22;10915;54.352;9.074;2022-07-18T04:38:46;16.50;99.90
21508;DHT22;10915;54.352;9.074;2022-07-18T04:41:12;16.50;99.90
21508;DHT22;10915;54.352;9.074;2022-07-18T04:43:37;16.50;99.90
21508;DHT22;10915;54.352;9.074;2022-07-18T04:46:03;16.50;99.90
21508;DHT22;10915;54.352;9.074;2022-07-18T04:48:29;16.50;99.90
21508;DHT22;10915;54.352;9.074;2022-07-18T04:50:54;16.60;99.90
21508;DHT22;10915;54.352;9.074;2022-07-18T04:53:20;16.60;99.90
21508;DHT22;10915;54.352;9.074;2022-07-18T04:55:46;16.70;99.90
21508;DHT22;10915;54.352;9.074;2022-07-18T04:58:11;16.70;99.90
21508;DHT22;10915;54.352;9.074;2022-07-18T05:00:37;16.80;99.90
21508;DHT22;10915;54.352;9.074;2022-07-18T05:03:03;16.80;99.90
21508;DHT22;10915;54.352;9.074;2022-07-18T05:05:28;16.80;99.90
21508;DHT22;10915;54.352;9.074;2022-07-18T05:07:55;16.80;99.90
21508;DHT22;10915;54.352;9.074;2022-07-18T05:10:22;16.90;99.90
21508;DHT22;10915;54.352;9.074;2022-07-18T05:12:51;16.90;99.90
21508;DHT22;10915;54.352;9.074;2022-07-18T05:15:18;16.90;99.90
21508;DHT22;10915;54.352;9.074;2022-07-18T05:17:44;17.00;99.90
21508;DHT22;10915;54.352;9.074;2022-07-18T05:20:12;17.00;99.90
21508;DHT22;10915;54.352;9.074;2022-07-18T05:22:38;17.10;99.90
21508;DHT22;10915;54.352;9.074;2022-07-18T05:25:05;17.10;99.90
21508;DHT22;10915;54.352;9.074;2022-07-18T05:27:32;17.20;99.90
21508;DHT22;10915;54.352;9.074;2022-07-18T05:29:57;17.30;99.90
21508;DHT22;10915;54.352;9.074;2022-07-18T05:32:25;17.40;99.90
21508;DHT22;10915;54.352;9.074;2022-07-18T05:34:51;17.40;99.90
21508;DHT22;10915;54.352;9.074;2022-07-18T05:37:16;17.50;99.90
21508;DHT22;10915;54.352;9.074;2022-07-18T05:39:42;17.60;99.90
21508;DHT22;10915;54.352;9.074;2022-07-18T05:42:08;17.60;99.90
21508;DHT22;10915;54.352;9.074;2022-07-18T05:44:34;17.70;99.90
21508;DHT22;10915;54.352;9.074;2022-07-18T05:46:59;17.80;99.90
21508;DHT22;10915;54.352;9.074;2022-07-18T05:49:25;17.80;99.90
21508;DHT22;10915;54.352;9.074;2022-07-18T05:51:50;17.90;99.90
21508;DHT22;10915;54.352;9.074;2022-07-18T05:54:16;18.00;99.90
21508;DHT22;10915;54.352;9.074;2022-07-18T05:56:49;18.10;99.90
21508;DHT22;10915;54.352;9.074;2022-07-18T05:59:15;18.20;99.90
21508;DHT22;10915;54.352;9.074;2022-07-18T06:01:41;18.40;99.90
21508;DHT22;10915;54.352;9.074;2022-07-18T06:04:07;18.50;99.90
21508;DHT22;10915;54.352;9.074;2022-07-18T06:06:32;18.60;99.90
21508;DHT22;10915;54.352;9.074;2022-07-18T06:08:58;18.70;99.90
21508;DHT22;10915;54.352;9.074;2022-07-18T06:11:24;18.80;99.90
21508;DHT22;10915;54.352;9.074;2022-07-18T06:13:49;18.90;99.90
21508;DHT22;10915;54.352;9.074;2022-07-18T06:16:15;19.00;99.90
21508;DHT22;10915;54.352;9.074;2022-07-18T06:18:41;19.10;99.90
21508;DHT22;10915;54.352;9.074;2022-07-18T06:21:07;19.20;99.90
21508;DHT22;10915;54.352;9.074;2022-07-18T06:23:32;19.30;99.90
21508;DHT22;10915;54.352;9.074;2022-07-18T06:25:58;19.40;99.90
21508;DHT22;10915;54.352;9.074;2022-07-18T06:28:24;19.40;99.90
21508;DHT22;10915;54.352;9.074;2022-07-18T06:30:51;19.50;99.90
21508;DHT22;10915;54.352;9.074;2022-07-18T06:33:17;19.60;99.90
21508;DHT22;10915;54.352;9.074;2022-07-18T06:35:43;19.70;99.90
21508;DHT22;10915;54.352;9.074;2022-07-18T06:38:08;19.70;99.90
21508;DHT22;10915;54.352;9.074;2022-07-18T06:40:34;19.80;99.90
21508;DHT22;10915;54.352;9.074;2022-07-18T06:42:59;19.80;99.90
21508;DHT22;10915;54.352;9.074;2022-07-18T06:45:25;19.90;99.90
21508;DHT22;10915;54.352;9.074;2022-07-18T06:47:51;20.00;99.90
21508;DHT22;10915;54.352;9.074;2022-07-18T06:50:17;20.10;99.90
21508;DHT22;10915;54.352;9.074;2022-07-18T06:52:43;20.20;99.90
21508;DHT22;10915;54.352;9.074;2022-07-18T06:55:10;20.20;99.90
21508;DHT22;10915;54.352;9.074;2022-07-18T06:57:37;20.30;99.90
21508;DHT22;10915;54.352;9.074;2022-07-18T07:00:04;20.30;99.90
21508;DHT22;10915;54.352;9.074;2022-07-18T07:02:30;20.40;99.90
21508;DHT22;10915;54.352;9.074;2022-07-18T07:04:56;20.40;99.90
21508;DHT22;10915;54.352;9.074;2022-07-18T07:07:22;20.50;99.90
21508;DHT22;10915;54.352;9.074;2022-07-18T07:09:47;20.50;99.90
21508;DHT22;10915;54.352;9.074;2022-07-18T07:12:13;20.60;99.90
21508;DHT22;10915;54.352;9.074;2022-07-18T07:14:39;20.60;99.90
21508;DHT22;10915;54.352;9.074;2022-07-18T07:17:05;20.70;99.90
21508;DHT22;10915;54.352;9.074;2022-07-18T07:19:31;20.80;99.90
21508;DHT22;10915;54.352;9.074;2022-07-18T07:21:56;20.90;99.90
21508;DHT22;10915;54.352;9.074;2022-07-18T07:24:22;20.90;99.90
21508;DHT22;10915;54.352;9.074;2022-07-18T07:26:48;21.00;99.90
21508;DHT22;10915;54.352;9.074;2022-07-18T07:29:14;21.10;99.90
21508;DHT22;10915;54.352;9.074;2022-07-18T07:31:41;21.20;99.90
21508;DHT22;10915;54.352;9.074;2022-07-18T07:34:06;21.30;99.90
21508;DHT22;10915;54.352;9.074;2022-07-18T07:36:32;21.40;99.90
21508;DHT22;10915;54.352;9.074;2022-07-18T07:38:58;21.40;99.90
21508;DHT22;10915;54.352;9.074;2022-07-18T07:41:23;21.50;99.90
21508;DHT22;10915;54.352;9.074;2022-07-18T07:43:49;21.50;99.90
21508;DHT22;10915;54.352;9.074;2022-07-18T07:46:15;21.60;99.90
21508;DHT22;10915;54.352;9.074;2022-07-18T07:48:40;21.60;99.90
21508;DHT22;10915;54.352;9.074;2022-07-18T07:51:06;21.60;99.90
21508;DHT22;10915;54.352;9.074;2022-07-18T07:53:31;21.60;99.90
21508;DHT22;10915;54.352;9.074;2022-07-18T07:55:58;21.60;99.90
21508;DHT22;10915;54.352;9.074;2022-07-18T07:58:23;21.60;99.90
21508;DHT22;10915;54.352;9.074;2022-07-18T08:00:49;21.60;99.90
21508;DHT22;10915;54.352;9.074;2022-07-18T08:03:14;21.70;99.90
21508;DHT22;10915;54.352;9.074;2022-07-18T08:05:48;21.80;99.90
21508;DHT22;10915;54.352;9.074;2022-07-18T08:08:14;21.80;99.90
21508;DHT22;10915;54.352;9.074;2022-07-18T08:10:40;21.90;99.90
21508;DHT22;10915;54.352;9.074;2022-07-18T08:13:06;21.90;99.90
21508;DHT22;10915;54.352;9.074;2022-07-18T08:15:32;22.00;99.90
21508;DHT22;10915;54.352;9.074;2022-07-18T08:17:58;22.00;99.90
21508;DHT22;10915;54.352;9.074;2022-07-18T08:20:24;22.10;99.90
21508;DHT22;10915;54.352;9.074;2022-07-18T08:22:58;22.20;99.90
21508;DHT22;10915;54.352;9.074;2022-07-18T08:25:25;22.20;99.90
21508;DHT22;10915;54.352;9.074;2022-07-18T08:27:51;22.30;99.90
21508;DHT22;10915;54.352;9.074;2022-07-18T08:30:17;22.40;99.90
21508;DHT22;10915;54.352;9.074;2022-07-18T08:32:43;22.50;99.90
21508;DHT22;10915;54.352;9.074;2022-07-18T08:35:09;22.60;99.90
21508;DHT22;10915;54.352;9.074;2022-07-18T08:37:35;22.80;99.90
21508;DHT22;10915;54.352;9.074;2022-07-18T08:40:01;22.90;99.90
21508;DHT22;10915;54.352;9.074;2022-07-18T08:42:27;23.10;99.90
21508;DHT22;10915;54.352;9.074;2022-07-18T08:44:55;23.20;99.90
21508;DHT22;10915;54.352;9.074;2022-07-18T08:47:21;23.30;99.90
21508;DHT22;10915;54.352;9.074;2022-07-18T08:49:47;23.40;99.90
21508;DHT22;10915;54.352;9.074;2022-07-18T08:52:14;23.40;99.90
21508;DHT22;10915;54.352;9.074;2022-07-18T08:54:40;23.60;99.90
21508;DHT22;10915;54.352;9.074;2022-07-18T08:57:05;23.70;99.90
21508;DHT22;10915;54.352;9.074;2022-07-18T08:59:31;23.80;99.90
21508;DHT22;10915;54.352;9.074;2022-07-18T09:01:57;23.90;99.90
21508;DHT22;10915;54.352;9.074;2022-07-18T09:04:39;24.00;99.90
21508;DHT22;10915;54.352;9.074;2022-07-18T09:07:06;24.00;99.90
21508;DHT22;10915;54.352;9.074;2022-07-18T09:09:37;24.10;99.90
21508;DHT22;10915;54.352;9.074;2022-07-18T09:12:08;24.00;99.90
21508;DHT22;10915;54.352;9.074;2022-07-18T09:14:39;23.90;99.90
21508;DHT22;10915;54.352;9.074;2022-07-18T09:19:38;24.10;99.90
21508;DHT22;10915;54.352;9.074;2022-07-18T09:22:15;24.10;99.90
21508;DHT22;10915;54.352;9.074;2022-07-18T09:25:14;24.10;99.90
21508;DHT22;10915;54.352;9.074;2022-07-18T09:27:47;24.20;99.90
21508;DHT22;10915;54.352;9.074;2022-07-18T09:30:26;24.20;99.90
21508;DHT22;10915;54.352;9.074;2022-07-18T09:35:33;24.40;99.90
21508;DHT22;10915;54.352;9.074;2022-07-18T09:38:00;24.50;99.90
21508;DHT22;10915;54.352;9.074;2022-07-18T09:40:32;24.60;99.90
21508;DHT22;10915;54.352;9.074;2022-07-18T09:43:03;24.70;99.90
21508;DHT22;10915;54.352;9.074;2022-07-18T09:45:31;24.70;99.90
21508;DHT22;10915;54.352;9.074;2022-07-18T09:48:03;24.80;99.90
21508;DHT22;10915;54.352;9.074;2022-07-18T09:50:35;24.80;99.90
21508;DHT22;10915;54.352;9.074;2022-07-18T09:53:09;24.70;99.90
21508;DHT22;10915;54.352;9.074;2022-07-18T09:55:48;24.80;99.90
21508;DHT22;10915;54.352;9.074;2022-07-18T09:58:22;24.80;99.90
21508;DHT22;10915;54.352;9.074;2022-07-18T10:00:49;24.90;99.90
21508;DHT22;10915;54.352;9.074;2022-07-18T10:03:16;24.90;99.90
21508;DHT22;10915;54.352;9.074;2022-07-18T10:05:43;24.80;99.90
21508;DHT22;10915;54.352;9.074;2022-07-18T10:08:11;24.70;99.90
21508;DHT22;10915;54.352;9.074;2022-07-18T10:10:39;24.80;99.90
21508;DHT22;10915;54.352;9.074;2022-07-18T10:13:06;25.00;99.90
21508;DHT22;10915;54.352;9.074;2022-07-18T10:15:35;25.30;99.90
21508;DHT22;10915;54.352;9.074;2022-07-18T10:18:01;25.60;99.90
21508;DHT22;10915;54.352;9.074;2022-07-18T10:20:34;25.70;99.90
21508;DHT22;10915;54.352;9.074;2022-07-18T10:23:28;25.70;99.90
21508;DHT22;10915;54.352;9.074;2022-07-18T10:26:13;25.80;99.90
21508;DHT22;10915;54.352;9.074;2022-07-18T10:31:40;26.20;99.90
21508;DHT22;10915;54.352;9.074;2022-07-18T10:34:31;26.30;99.90
21508;DHT22;10915;54.352;9.074;2022-07-18T10:39:36;26.50;99.90
21508;DHT22;10915;54.352;9.074;2022-07-18T10:57:39;26.70;99.90
21508;DHT22;10915;54.352;9.074;2022-07-18T11:00:06;26.70;99.90
21508;DHT22;10915;54.352;9.074;2022-07-18T11:02:42;26.80;99.90
21508;DHT22;10915;54.352;9.074;2022-07-18T11:15:59;26.40;99.90
21508;DHT22;10915;54.352;9.074;2022-07-18T11:18:31;26.40;99.90
21508;DHT22;10915;54.352;9.074;2022-07-18T11:20:58;26.40;99.90
21508;DHT22;10915;54.352;9.074;2022-07-18T11:23:27;26.30;99.90
21508;DHT22;10915;54.352;9.074;2022-07-18T11:25:56;26.30;99.90
21508;DHT22;10915;54.352;9.074;2022-07-18T11:28:22;26.30;99.90
21508;DHT22;10915;54.352;9.074;2022-07-18T11:31:06;26.30;99.90
21508;DHT22;10915;54.352;9.074;2022-07-18T11:33:44;26.20;99.90
21508;DHT22;10915;54.352;9.074;2022-07-18T11:36:11;26.20;99.90
21508;DHT22;10915;54.352;9.074;2022-07-18T11:38:39;26.20;99.90
21508;DHT22;10915;54.352;9.074;2022-07-18T11:41:10;26.20;99.90
21508;DHT22;10915;54.352;9.074;2022-07-18T11:43:36;26.20;99.90
21508;DHT22;10915;54.352;9.074;2022-07-18T11:46:08;26.20;99.90
21508;DHT22;10915;54.352;9.074;2022-07-18T11:48:35;26.20;99.90
21508;DHT22;10915;54.352;9.074;2022-07-18T11:51:01;26.20;99.90
21508;DHT22;10915;54.352;9.074;2022-07-18T11:53:28;26.30;99.90
21508;DHT22;10915;54.352;9.074;2022-07-18T11:55:55;26.20;99.90
21508;DHT22;10915;54.352;9.074;2022-07-18T11:58:20;26.20;99.90
21508;DHT22;10915;54.352;9.074;2022-07-18T12:00:47;26.10;99.90
21508;DHT22;10915;54.352;9.074;2022-07-18T12:03:19;26.10;99.90
21508;DHT22;10915;54.352;9.074;2022-07-18T12:05:46;26.00;99.90
21508;DHT22;10915;54.352;9.074;2022-07-18T12:08:28;25.90;99.90
21508;DHT22;10915;54.352;9.074;2022-07-18T12:13:58;25.90;99.90
21508;DHT22;10915;54.352;9.074;2022-07-18T12:16:43;25.90;99.90
21508;DHT22;10915;54.352;9.074;2022-07-18T12:19:13;25.90;99.90
21508;DHT22;10915;54.352;9.074;2022-07-18T12:21:51;26.10;99.90
21508;DHT22;10915;54.352;9.074;2022-07-18T12:27:34;26.50;99.90
21508;DHT22;10915;54.352;9.074;2022-07-18T12:32:57;26.90;99.90
21508;DHT22;10915;54.352;9.074;2022-07-18T12:40:26;27.20;99.90
21508;DHT22;10915;54.352;9.074;2022-07-18T12:43:03;27.30;99.90
21508;DHT22;10915;54.352;9.074;2022-07-18T12:45:29;27.40;99.90
21508;DHT22;10915;54.352;9.074;2022-07-18T12:47:54;27.40;99.90
21508;DHT22;10915;54.352;9.074;2022-07-18T12:50:20;27.40;99.90
21508;DHT22;10915;54.352;9.074;2022-07-18T12:52:46;27.40;99.90
21508;DHT22;10915;54.352;9.074;2022-07-18T12:55:11;27.40;99.90
21508;DHT22;10915;54.352;9.074;2022-07-18T12:57:37;27.40;99.90
21508;DHT22;10915;54.352;9.074;2022-07-18T13:00:03;27.50;99.90
21508;DHT22;10915;54.352;9.074;2022-07-18T13:02:29;27.50;99.90
21508;DHT22;10915;54.352;9.074;2022-07-18T13:04:55;27.50;99.90
21508;DHT22;10915;54.352;9.074;2022-07-18T13:07:21;27.50;99.90
21508;DHT22;10915;54.352;9.074;2022-07-18T13:09:46;27.40;99.90
21508;DHT22;10915;54.352;9.074;2022-07-18T13:12:12;27.30;99.90
21508;DHT22;10915;54.352;9.074;2022-07-18T13:14:38;27.30;99.90
21508;DHT22;10915;54.352;9.074;2022-07-18T13:17:03;27.50;99.90
21508;DHT22;10915;54.352;9.074;2022-07-18T13:19:29;27.60;99.90
21508;DHT22;10915;54.352;9.074;2022-07-18T13:21:57;27.70;99.90
21508;DHT22;10915;54.352;9.074;2022-07-18T13:24:23;27.80;99.90
21508;DHT22;10915;54.352;9.074;2022-07-18T13:26:49;27.80;99.90
21508;DHT22;10915;54.352;9.074;2022-07-18T13:29:14;27.90;99.90
21508;DHT22;10915;54.352;9.074;2022-07-18T13:31:41;28.00;99.90
21508;DHT22;10915;54.352;9.074;2022-07-18T13:34:06;28.10;99.90
21508;DHT22;10915;54.352;9.074;2022-07-18T13:36:32;28.30;99.90
21508;DHT22;10915;54.352;9.074;2022-07-18T13:38:58;28.30;99.90
21508;DHT22;10915;54.352;9.074;2022-07-18T13:41:24;28.40;99.90
21508;DHT22;10915;54.352;9.074;2022-07-18T13:43:50;28.50;99.90
21508;DHT22;10915;54.352;9.074;2022-07-18T13:46:16;28.40;99.90
21508;DHT22;10915;54.352;9.074;2022-07-18T13:48:44;28.30;99.90
21508;DHT22;10915;54.352;9.074;2022-07-18T13:51:12;28.20;99.90
21508;DHT22;10915;54.352;9.074;2022-07-18T13:53:38;28.20;99.90
21508;DHT22;10915;54.352;9.074;2022-07-18T13:56:03;28.20;99.90
21508;DHT22;10915;54.352;9.074;2022-07-18T13:58:29;28.10;99.90
21508;DHT22;10915;54.352;9.074;2022-07-18T14:00:54;28.00;99.90
21508;DHT22;10915;54.352;9.074;2022-07-18T14:03:20;27.90;99.90
21508;DHT22;10915;54.352;9.074;2022-07-18T14:05:46;27.90;99.90
21508;DHT22;10915;54.352;9.074;2022-07-18T14:08:11;28.00;99.90
21508;DHT22;10915;54.352;9.074;2022-07-18T14:10:37;28.10;99.90
21508;DHT22;10915;54.352;9.074;2022-07-18T14:13:03;28.20;99.90
21508;DHT22;10915;54.352;9.074;2022-07-18T14:15:28;28.20;99.90
21508;DHT22;10915;54.352;9.074;2022-07-18T14:17:54;28.10;99.90
21508;DHT22;10915;54.352;9.074;2022-07-18T14:20:20;28.10;99.90
21508;DHT22;10915;54.352;9.074;2022-07-18T14:22:48;27.90;99.90
21508;DHT22;10915;54.352;9.074;2022-07-18T14:25:16;27.90;99.90
21508;DHT22;10915;54.352;9.074;2022-07-18T14:27:42;27.80;99.90
21508;DHT22;10915;54.352;9.074;2022-07-18T14:30:11;27.80;99.90
21508;DHT22;10915;54.352;9.074;2022-07-18T14:32:37;28.00;99.90
21508;DHT22;10915;54.352;9.074;2022-07-18T14:35:03;28.10;99.90
21508;DHT22;10915;54.352;9.074;2022-07-18T14:37:29;28.10;99.90
21508;DHT22;10915;54.352;9.074;2022-07-18T14:39:55;28.10;99.90
21508;DHT22;10915;54.352;9.074;2022-07-18T14:42:21;28.20;99.90
21508;DHT22;10915;54.352;9.074;2022-07-18T14:44:46;28.20;99.90
21508;DHT22;10915;54.352;9.074;2022-07-18T14:47:12;28.20;99.90
21508;DHT22;10915;54.352;9.074;2022-07-18T14:49:38;28.20;99.90
21508;DHT22;10915;54.352;9.074;2022-07-18T14:52:03;28.30;99.90
21508;DHT22;10915;54.352;9.074;2022-07-18T14:54:29;28.30;99.90
21508;DHT22;10915;54.352;9.074;2022-07-18T14:56:55;28.20;99.90
21508;DHT22;10915;54.352;9.074;2022-07-18T14:59:22;28.20;99.90
21508;DHT22;10915;54.352;9.074;2022-07-18T15:01:48;28.30;99.90
21508;DHT22;10915;54.352;9.074;2022-07-18T15:04:14;28.40;99.90
21508;DHT22;10915;54.352;9.074;2022-07-18T15:06:40;28.50;99.90
21508;DHT22;10915;54.352;9.074;2022-07-18T15:09:07;28.50;99.90
21508;DHT22;10915;54.352;9.074;2022-07-18T15:11:35;28.40;99.90
21508;DHT22;10915;54.352;9.074;2022-07-18T15:14:01;28.30;99.90
21508;DHT22;10915;54.352;9.074;2022-07-18T15:16:27;28.30;99.90
21508;DHT22;10915;54.352;9.074;2022-07-18T15:18:52;28.20;99.90
21508;DHT22;10915;54.352;9.074;2022-07-18T15:21:18;28.10;99.90
21508;DHT22;10915;54.352;9.074;2022-07-18T15:23:44;28.10;99.90
21508;DHT22;10915;54.352;9.074;2022-07-18T15:26:09;28.10;99.90
21508;DHT22;10915;54.352;9.074;2022-07-18T15:28:35;28.10;99.90
21508;DHT22;10915;54.352;9.074;2022-07-18T15:31:00;28.10;99.90
21508;DHT22;10915;54.352;9.074;2022-07-18T15:33:26;28.00;99.90
21508;DHT22;10915;54.352;9.074;2022-07-18T15:35:52;28.00;99.90
21508;DHT22;10915;54.352;9.074;2022-07-18T15:38:17;28.10;99.90
21508;DHT22;10915;54.352;9.074;2022-07-18T15:40:43;28.10;99.90
21508;DHT22;10915;54.352;9.074;2022-07-18T15:43:09;28.20;99.90
21508;DHT22;10915;54.352;9.074;2022-07-18T15:45:35;28.20;99.90
21508;DHT22;10915;54.352;9.074;2022-07-18T15:48:00;28.10;99.90
21508;DHT22;10915;54.352;9.074;2022-07-18T15:50:26;28.10;99.90
21508;DHT22;10915;54.352;9.074;2022-07-18T15:52:52;28.00;99.90
21508;DHT22;10915;54.352;9.074;2022-07-18T15:55:18;28.00;99.90
21508;DHT22;10915;54.352;9.074;2022-07-18T15:57:43;27.90;99.90
21508;DHT22;10915;54.352;9.074;2022-07-18T16:00:09;27.80;99.90
21508;DHT22;10915;54.352;9.074;2022-07-18T16:02:35;27.80;99.90
21508;DHT22;10915;54.352;9.074;2022-07-18T16:05:01;27.80;99.90
21508;DHT22;10915;54.352;9.074;2022-07-18T16:07:27;27.80;99.90
21508;DHT22;10915;54.352;9.074;2022-07-18T16:09:53;27.80;99.90
21508;DHT22;10915;54.352;9.074;2022-07-18T16:12:18;27.80;99.90
21508;DHT22;10915;54.352;9.074;2022-07-18T16:14:44;27.80;99.90
21508;DHT22;10915;54.352;9.074;2022-07-18T16:17:10;27.70;99.90
21508;DHT22;10915;54.352;9.074;2022-07-18T16:19:35;27.60;99.90